sensor_id;sensor_type;location;lat;lon;timestamp;P1;durP1;ratioP1;P2;durP2;ratioP2
77866;SDS011;67271;59.120;37.970;2023-05-10T00:03:15;4.22;;;2.60;;
77866;SDS011;67271;59.120;37.970;2023-05-10T00:05:41;4.93;;;2.50;;
77866;SDS011;67271;59.120;37.970;2023-05-10T00:08:07;7.18;;;2.85;;
77866;SDS011;67271;59.120;37.970;2023-05-10T00:10:33;6.05;;;2.92;;
77866;SDS011;67271;59.120;37.970;2023-05-10T00:12:59;6.47;;;2.85;;
77866;SDS011;67271;59.120;37.970;2023-05-10T00:15:25;10.20;;;3.17;;
77866;SDS011;67271;59.120;37.970;2023-05-10T00:17:51;5.35;;;2.42;;
77866;SDS011;67271;59.120;37.970;2023-05-10T00:20:17;5.20;;;2.83;;
77866;SDS011;67271;59.120;37.970;2023-05-10T00:22:43;6.20;;;3.70;;
77866;SDS011;67271;59.120;37.970;2023-05-10T00:25:09;8.63;;;2.85;;
77866;SDS011;67271;59.120;37.970;2023-05-10T00:27:35;7.55;;;3.17;;
77866;SDS011;67271;59.120;37.970;2023-05-10T00:30:01;8.85;;;3.08;;
77866;SDS011;67271;59.120;37.970;2023-05-10T00:32:29;6.70;;;2.78;;
77866;SDS011;67271;59.120;37.970;2023-05-10T00:34:55;4.20;;;2.55;;
77866;SDS011;67271;59.120;37.970;2023-05-10T00:37:20;4.38;;;2.80;;
77866;SDS011;67271;59.120;37.970;2023-05-10T00:39:46;17.02;;;3.00;;
77866;SDS011;67271;59.120;37.970;2023-05-10T00:42:12;4.82;;;2.72;;
77866;SDS011;67271;59.120;37.970;2023-05-10T00:44:38;8.25;;;2.85;;
77866;SDS011;67271;59.120;37.970;2023-05-10T00:47:04;8.15;;;2.95;;
77866;SDS011;67271;59.120;37.970;2023-05-10T00:49:31;4.78;;;3.13;;
77866;SDS011;67271;59.120;37.970;2023-05-10T00:51:57;5.35;;;2.72;;
77866;SDS011;67271;59.120;37.970;2023-05-10T00:54:23;4.00;;;2.60;;
77866;SDS011;67271;59.120;37.970;2023-05-10T00:56:50;7.50;;;2.75;;
77866;SDS011;67271;59.120;37.970;2023-05-10T00:59:17;5.32;;;2.85;;
77866;SDS011;67271;59.120;37.970;2023-05-10T01:01:46;5.35;;;3.05;;
77866;SDS011;67271;59.120;37.970;2023-05-10T01:04:13;8.52;;;3.28;;
77866;SDS011;67271;59.120;37.970;2023-05-10T01:06:41;9.98;;;3.55;;
77866;SDS011;67271;59.120;37.970;2023-05-10T01:09:07;6.07;;;3.75;;
77866;SDS011;67271;59.120;37.970;2023-05-10T01:11:36;8.57;;;3.88;;
77866;SDS011;67271;59.120;37.970;2023-05-10T01:14:04;9.98;;;4.05;;
77866;SDS011;67271;59.120;37.970;2023-05-10T01:16:32;10.65;;;4.10;;
77866;SDS011;67271;59.120;37.970;2023-05-10T01:19:02;10.65;;;4.45;;
77866;SDS011;67271;59.120;37.970;2023-05-10T01:27:33;12.10;;;4.22;;
77866;SDS011;67271;59.120;37.970;2023-05-10T01:43:56;6.63;;;3.85;;
77866;SDS011;67271;59.120;37.970;2023-05-10T01:46:32;4.72;;;3.20;;
77866;SDS011;67271;59.120;37.970;2023-05-10T01:51:47;11.23;;;3.58;;
77866;SDS011;67271;59.120;37.970;2023-05-10T01:54:19;8.15;;;3.60;;
77866;SDS011;67271;59.120;37.970;2023-05-10T01:56:55;9.07;;;3.83;;
77866;SDS011;67271;59.120;37.970;2023-05-10T01:59:25;9.40;;;3.78;;
77866;SDS011;67271;59.120;37.970;2023-05-10T02:01:55;10.73;;;3.58;;
77866;SDS011;67271;59.120;37.970;2023-05-10T02:04:25;7.47;;;3.58;;
77866;SDS011;67271;59.120;37.970;2023-05-10T02:06:52;6.22;;;3.35;;
77866;SDS011;67271;59.120;37.970;2023-05-10T02:09:20;17.17;;;4.47;;
77866;SDS011;67271;59.120;37.970;2023-05-10T02:11:49;7.70;;;3.70;;
77866;SDS011;67271;59.120;37.970;2023-05-10T02:14:15;8.95;;;4.13;;
77866;SDS011;67271;59.120;37.970;2023-05-10T02:16:43;14.30;;;4.28;;
77866;SDS011;67271;59.120;37.970;2023-05-10T02:19:11;12.02;;;4.05;;
77866;SDS011;67271;59.120;37.970;2023-05-10T02:21:39;17.38;;;3.70;;
77866;SDS011;67271;59.120;37.970;2023-05-10T02:24:05;22.95;;;4.70;;
77866;SDS011;67271;59.120;37.970;2023-05-10T02:26:34;11.48;;;4.18;;
77866;SDS011;67271;59.120;37.970;2023-05-10T02:29:01;11.63;;;3.88;;
77866;SDS011;67271;59.120;37.970;2023-05-10T02:31:30;14.63;;;3.97;;
77866;SDS011;67271;59.120;37.970;2023-05-10T02:33:57;14.15;;;4.10;;
77866;SDS011;67271;59.120;37.970;2023-05-10T02:36:26;9.32;;;4.10;;
77866;SDS011;67271;59.120;37.970;2023-05-10T02:38:53;6.30;;;3.35;;
77866;SDS011;67271;59.120;37.970;2023-05-10T02:41:19;13.70;;;4.47;;
77866;SDS011;67271;59.120;37.970;2023-05-10T02:43:49;8.70;;;4.43;;
77866;SDS011;67271;59.120;37.970;2023-05-10T02:46:18;14.13;;;4.43;;
77866;SDS011;67271;59.120;37.970;2023-05-10T02:48:44;12.95;;;4.35;;
77866;SDS011;67271;59.120;37.970;2023-05-10T02:51:10;10.15;;;4.25;;
77866;SDS011;67271;59.120;37.970;2023-05-10T02:53:40;8.43;;;4.50;;
77866;SDS011;67271;59.120;37.970;2023-05-10T02:56:23;16.80;;;4.00;;
77866;SDS011;67271;59.120;37.970;2023-05-10T02:58:51;6.95;;;3.92;;
77866;SDS011;67271;59.120;37.970;2023-05-10T03:01:17;14.73;;;4.25;;
77866;SDS011;67271;59.120;37.970;2023-05-10T03:03:43;10.18;;;4.10;;
77866;SDS011;67271;59.120;37.970;2023-05-10T03:06:09;9.80;;;4.13;;
77866;SDS011;67271;59.120;37.970;2023-05-10T03:08:35;8.73;;;4.15;;
77866;SDS011;67271;59.120;37.970;2023-05-10T03:16:15;8.65;;;4.63;;
77866;SDS011;67271;59.120;37.970;2023-05-10T03:21:20;18.92;;;5.03;;
77866;SDS011;67271;59.120;37.970;2023-05-10T03:23:54;15.45;;;5.15;;
77866;SDS011;67271;59.120;37.970;2023-05-10T03:26:29;18.88;;;5.47;;
77866;SDS011;67271;59.120;37.970;2023-05-10T03:29:04;13.52;;;4.25;;
77866;SDS011;67271;59.120;37.970;2023-05-10T03:31:31;6.18;;;3.92;;
77866;SDS011;67271;59.120;37.970;2023-05-10T03:33:58;11.60;;;4.43;;
77866;SDS011;67271;59.120;37.970;2023-05-10T03:36:25;7.50;;;4.28;;
77866;SDS011;67271;59.120;37.970;2023-05-10T03:38:52;20.13;;;5.47;;
77866;SDS011;67271;59.120;37.970;2023-05-10T03:41:18;11.80;;;4.85;;
77866;SDS011;67271;59.120;37.970;2023-05-10T03:43:44;13.07;;;4.55;;
77866;SDS011;67271;59.120;37.970;2023-05-10T03:46:09;22.33;;;4.60;;
77866;SDS011;67271;59.120;37.970;2023-05-10T03:48:35;18.70;;;5.35;;
77866;SDS011;67271;59.120;37.970;2023-05-10T03:51:01;12.38;;;5.78;;
77866;SDS011;67271;59.120;37.970;2023-05-10T03:53:27;15.52;;;5.65;;
77866;SDS011;67271;59.120;37.970;2023-05-10T03:55:53;16.25;;;5.55;;
77866;SDS011;67271;59.120;37.970;2023-05-10T03:58:19;10.82;;;5.40;;
77866;SDS011;67271;59.120;37.970;2023-05-10T04:00:45;8.55;;;4.63;;
77866;SDS011;67271;59.120;37.970;2023-05-10T04:03:14;11.05;;;4.57;;
77866;SDS011;67271;59.120;37.970;2023-05-10T04:05:40;10.60;;;5.25;;
77866;SDS011;67271;59.120;37.970;2023-05-10T04:08:06;8.30;;;4.75;;
77866;SDS011;67271;59.120;37.970;2023-05-10T04:10:32;10.40;;;5.30;;
77866;SDS011;67271;59.120;37.970;2023-05-10T04:12:58;8.77;;;5.30;;
77866;SDS011;67271;59.120;37.970;2023-05-10T04:15:24;18.23;;;6.22;;
77866;SDS011;67271;59.120;37.970;2023-05-10T04:17:50;14.75;;;5.80;;
77866;SDS011;67271;59.120;37.970;2023-05-10T04:20:16;16.50;;;5.35;;
77866;SDS011;67271;59.120;37.970;2023-05-10T04:22:42;18.25;;;5.70;;
77866;SDS011;67271;59.120;37.970;2023-05-10T04:25:08;10.65;;;3.95;;
77866;SDS011;67271;59.120;37.970;2023-05-10T04:27:34;12.48;;;5.05;;
77866;SDS011;67271;59.120;37.970;2023-05-10T04:30:00;14.68;;;4.50;;
77866;SDS011;67271;59.120;37.970;2023-05-10T04:32:27;17.27;;;5.18;;
77866;SDS011;67271;59.120;37.970;2023-05-10T04:34:53;22.17;;;4.50;;
77866;SDS011;67271;59.120;37.970;2023-05-10T04:37:19;10.10;;;3.85;;
77866;SDS011;67271;59.120;37.970;2023-05-10T04:39:46;6.35;;;3.30;;
77866;SDS011;67271;59.120;37.970;2023-05-10T04:42:12;9.57;;;3.40;;
77866;SDS011;67271;59.120;37.970;2023-05-10T04:44:40;32.85;;;3.88;;
77866;SDS011;67271;59.120;37.970;2023-05-10T04:47:06;9.55;;;4.35;;
77866;SDS011;67271;59.120;37.970;2023-05-10T04:49:32;8.23;;;3.42;;
77866;SDS011;67271;59.120;37.970;2023-05-10T04:51:58;12.15;;;4.22;;
77866;SDS011;67271;59.120;37.970;2023-05-10T04:54:24;17.45;;;5.60;;
77866;SDS011;67271;59.120;37.970;2023-05-10T04:56:50;6.55;;;3.05;;
77866;SDS011;67271;59.120;37.970;2023-05-10T04:59:15;13.05;;;4.78;;
77866;SDS011;67271;59.120;37.970;2023-05-10T05:01:41;8.18;;;3.78;;
77866;SDS011;67271;59.120;37.970;2023-05-10T05:04:07;9.40;;;3.35;;
77866;SDS011;67271;59.120;37.970;2023-05-10T05:06:33;14.38;;;4.38;;
77866;SDS011;67271;59.120;37.970;2023-05-10T05:08:59;6.20;;;3.33;;
77866;SDS011;67271;59.120;37.970;2023-05-10T05:11:25;7.25;;;3.58;;
77866;SDS011;67271;59.120;37.970;2023-05-10T05:13:51;13.60;;;3.67;;
77866;SDS011;67271;59.120;37.970;2023-05-10T05:16:17;12.32;;;4.28;;
77866;SDS011;67271;59.120;37.970;2023-05-10T05:18:43;7.45;;;3.70;;
77866;SDS011;67271;59.120;37.970;2023-05-10T05:21:18;9.48;;;4.25;;
77866;SDS011;67271;59.120;37.970;2023-05-10T05:23:45;14.82;;;4.60;;
77866;SDS011;67271;59.120;37.970;2023-05-10T05:26:11;14.00;;;4.95;;
77866;SDS011;67271;59.120;37.970;2023-05-10T05:28:37;29.70;;;4.88;;
77866;SDS011;67271;59.120;37.970;2023-05-10T05:31:06;13.55;;;6.18;;
77866;SDS011;67271;59.120;37.970;2023-05-10T05:33:33;18.58;;;5.78;;
77866;SDS011;67271;59.120;37.970;2023-05-10T05:36:02;17.25;;;6.82;;
77866;SDS011;67271;59.120;37.970;2023-05-10T05:38:29;17.52;;;5.70;;
77866;SDS011;67271;59.120;37.970;2023-05-10T05:40:55;19.73;;;5.97;;
77866;SDS011;67271;59.120;37.970;2023-05-10T05:43:23;22.48;;;7.15;;
77866;SDS011;67271;59.120;37.970;2023-05-10T05:45:51;25.60;;;7.07;;
77866;SDS011;67271;59.120;37.970;2023-05-10T05:48:18;29.02;;;7.22;;
77866;SDS011;67271;59.120;37.970;2023-05-10T05:50:45;28.13;;;7.10;;
77866;SDS011;67271;59.120;37.970;2023-05-10T05:53:11;25.63;;;6.75;;
77866;SDS011;67271;59.120;37.970;2023-05-10T05:55:37;25.98;;;6.70;;
77866;SDS011;67271;59.120;37.970;2023-05-10T05:58:03;19.38;;;6.45;;
77866;SDS011;67271;59.120;37.970;2023-05-10T06:00:29;22.20;;;6.60;;
77866;SDS011;67271;59.120;37.970;2023-05-10T06:02:55;28.33;;;7.47;;
77866;SDS011;67271;59.120;37.970;2023-05-10T06:05:21;16.05;;;5.97;;
77866;SDS011;67271;59.120;37.970;2023-05-10T06:07:47;25.05;;;6.65;;
77866;SDS011;67271;59.120;37.970;2023-05-10T06:10:22;18.60;;;7.50;;
77866;SDS011;67271;59.120;37.970;2023-05-10T06:12:48;22.55;;;8.27;;
77866;SDS011;67271;59.120;37.970;2023-05-10T06:15:14;19.17;;;7.72;;
77866;SDS011;67271;59.120;37.970;2023-05-10T06:17:40;19.98;;;6.10;;
77866;SDS011;67271;59.120;37.970;2023-05-10T06:20:06;26.75;;;7.18;;
77866;SDS011;67271;59.120;37.970;2023-05-10T06:22:32;17.35;;;6.78;;
77866;SDS011;67271;59.120;37.970;2023-05-10T06:24:58;22.38;;;6.65;;
77866;SDS011;67271;59.120;37.970;2023-05-10T06:27:24;26.25;;;7.28;;
77866;SDS011;67271;59.120;37.970;2023-05-10T06:29:50;37.47;;;6.75;;
77866;SDS011;67271;59.120;37.970;2023-05-10T06:32:16;28.20;;;6.68;;
77866;SDS011;67271;59.120;37.970;2023-05-10T06:34:42;24.73;;;8.00;;
77866;SDS011;67271;59.120;37.970;2023-05-10T06:37:08;26.85;;;10.40;;
77866;SDS011;67271;59.120;37.970;2023-05-10T06:39:34;33.65;;;9.20;;
77866;SDS011;67271;59.120;37.970;2023-05-10T06:42:00;34.10;;;12.13;;
77866;SDS011;67271;59.120;37.970;2023-05-10T06:44:31;36.40;;;13.27;;
77866;SDS011;67271;59.120;37.970;2023-05-10T06:46:57;32.92;;;12.52;;
77866;SDS011;67271;59.120;37.970;2023-05-10T06:49:23;58.88;;;19.15;;
77866;SDS011;67271;59.120;37.970;2023-05-10T06:51:49;45.42;;;16.27;;
77866;SDS011;67271;59.120;37.970;2023-05-10T06:54:15;47.80;;;17.10;;
77866;SDS011;67271;59.120;37.970;2023-05-10T06:56:41;26.25;;;13.40;;
77866;SDS011;67271;59.120;37.970;2023-05-10T06:59:06;29.27;;;10.88;;
77866;SDS011;67271;59.120;37.970;2023-05-10T07:01:32;19.23;;;8.90;;
77866;SDS011;67271;59.120;37.970;2023-05-10T07:03:58;23.08;;;7.40;;
77866;SDS011;67271;59.120;37.970;2023-05-10T07:06:24;12.95;;;4.68;;
77866;SDS011;67271;59.120;37.970;2023-05-10T07:08:50;11.52;;;4.72;;
77866;SDS011;67271;59.120;37.970;2023-05-10T07:11:16;11.77;;;4.68;;
77866;SDS011;67271;59.120;37.970;2023-05-10T07:13:42;14.60;;;4.97;;
77866;SDS011;67271;59.120;37.970;2023-05-10T07:16:09;14.13;;;5.00;;
77866;SDS011;67271;59.120;37.970;2023-05-10T07:18:35;9.75;;;4.32;;
77866;SDS011;67271;59.120;37.970;2023-05-10T07:21:01;12.88;;;5.10;;
77866;SDS011;67271;59.120;37.970;2023-05-10T07:23:31;8.35;;;4.68;;
77866;SDS011;67271;59.120;37.970;2023-05-10T07:25:56;10.93;;;4.53;;
77866;SDS011;67271;59.120;37.970;2023-05-10T07:28:23;12.05;;;4.57;;
77866;SDS011;67271;59.120;37.970;2023-05-10T07:30:51;10.00;;;4.50;;
77866;SDS011;67271;59.120;37.970;2023-05-10T07:33:17;8.65;;;4.18;;
77866;SDS011;67271;59.120;37.970;2023-05-10T07:35:43;16.63;;;5.65;;
77866;SDS011;67271;59.120;37.970;2023-05-10T07:38:09;11.63;;;5.88;;
77866;SDS011;67271;59.120;37.970;2023-05-10T07:40:36;11.63;;;5.60;;
77866;SDS011;67271;59.120;37.970;2023-05-10T07:43:02;13.02;;;4.70;;
77866;SDS011;67271;59.120;37.970;2023-05-10T07:45:28;7.25;;;4.38;;
77866;SDS011;67271;59.120;37.970;2023-05-10T07:47:54;8.88;;;4.38;;
77866;SDS011;67271;59.120;37.970;2023-05-10T07:50:20;9.43;;;4.32;;
77866;SDS011;67271;59.120;37.970;2023-05-10T07:52:46;7.03;;;4.00;;
77866;SDS011;67271;59.120;37.970;2023-05-10T07:55:13;14.32;;;3.63;;
77866;SDS011;67271;59.120;37.970;2023-05-10T07:57:39;37.10;;;5.45;;
77866;SDS011;67271;59.120;37.970;2023-05-10T08:00:05;10.38;;;3.38;;
77866;SDS011;67271;59.120;37.970;2023-05-10T08:02:38;8.30;;;3.47;;
77866;SDS011;67271;59.120;37.970;2023-05-10T08:05:04;6.65;;;3.22;;
77866;SDS011;67271;59.120;37.970;2023-05-10T08:07:30;7.40;;;3.13;;
77866;SDS011;67271;59.120;37.970;2023-05-10T08:09:56;3.97;;;2.78;;
77866;SDS011;67271;59.120;37.970;2023-05-10T08:12:22;6.53;;;3.13;;
77866;SDS011;67271;59.120;37.970;2023-05-10T08:14:48;4.93;;;2.67;;
77866;SDS011;67271;59.120;37.970;2023-05-10T08:17:14;7.13;;;2.30;;
77866;SDS011;67271;59.120;37.970;2023-05-10T08:19:40;8.45;;;2.85;;
77866;SDS011;67271;59.120;37.970;2023-05-10T08:22:06;5.43;;;2.50;;
77866;SDS011;67271;59.120;37.970;2023-05-10T08:24:32;10.68;;;2.88;;
77866;SDS011;67271;59.120;37.970;2023-05-10T08:26:59;5.90;;;2.53;;
77866;SDS011;67271;59.120;37.970;2023-05-10T08:29:26;4.05;;;2.33;;
77866;SDS011;67271;59.120;37.970;2023-05-10T08:31:51;6.85;;;2.53;;
77866;SDS011;67271;59.120;37.970;2023-05-10T08:34:17;3.45;;;2.17;;
77866;SDS011;67271;59.120;37.970;2023-05-10T08:36:43;4.68;;;2.45;;
77866;SDS011;67271;59.120;37.970;2023-05-10T08:39:09;3.53;;;2.22;;
77866;SDS011;67271;59.120;37.970;2023-05-10T08:41:35;9.82;;;2.63;;
77866;SDS011;67271;59.120;37.970;2023-05-10T08:44:04;4.47;;;2.22;;
77866;SDS011;67271;59.120;37.970;2023-05-10T08:46:30;3.80;;;2.35;;
77866;SDS011;67271;59.120;37.970;2023-05-10T08:49:01;6.05;;;2.15;;
77866;SDS011;67271;59.120;37.970;2023-05-10T08:53:58;3.53;;;2.15;;
77866;SDS011;67271;59.120;37.970;2023-05-10T08:56:25;6.93;;;2.30;;
77866;SDS011;67271;59.120;37.970;2023-05-10T08:58:51;5.47;;;2.25;;
77866;SDS011;67271;59.120;37.970;2023-05-10T09:01:18;6.07;;;2.63;;
77866;SDS011;67271;59.120;37.970;2023-05-10T09:03:45;7.05;;;2.63;;
77866;SDS011;67271;59.120;37.970;2023-05-10T09:06:11;5.53;;;2.60;;
77866;SDS011;67271;59.120;37.970;2023-05-10T09:08:38;4.93;;;2.40;;
77866;SDS011;67271;59.120;37.970;2023-05-10T09:11:06;4.85;;;2.08;;
77866;SDS011;67271;59.120;37.970;2023-05-10T09:13:34;4.55;;;2.13;;
77866;SDS011;67271;59.120;37.970;2023-05-10T09:16:01;8.35;;;2.63;;
77866;SDS011;67271;59.120;37.970;2023-05-10T09:18:28;4.93;;;1.90;;
77866;SDS011;67271;59.120;37.970;2023-05-10T09:20:54;3.00;;;1.98;;
77866;SDS011;67271;59.120;37.970;2023-05-10T09:23:20;4.05;;;2.15;;
77866;SDS011;67271;59.120;37.970;2023-05-10T09:25:46;8.90;;;2.42;;
77866;SDS011;67271;59.120;37.970;2023-05-10T09:28:12;3.90;;;1.70;;
77866;SDS011;67271;59.120;37.970;2023-05-10T09:30:38;5.47;;;2.60;;
77866;SDS011;67271;59.120;37.970;2023-05-10T09:33:04;2.67;;;1.92;;
77866;SDS011;67271;59.120;37.970;2023-05-10T09:35:31;7.10;;;2.30;;
77866;SDS011;67271;59.120;37.970;2023-05-10T09:38:04;3.60;;;1.98;;
77866;SDS011;67271;59.120;37.970;2023-05-10T09:40:30;6.43;;;2.30;;
77866;SDS011;67271;59.120;37.970;2023-05-10T09:43:00;3.38;;;1.98;;
77866;SDS011;67271;59.120;37.970;2023-05-10T09:45:27;6.75;;;2.45;;
77866;SDS011;67271;59.120;37.970;2023-05-10T09:47:55;3.72;;;1.90;;
77866;SDS011;67271;59.120;37.970;2023-05-10T09:50:22;18.63;;;2.40;;
77866;SDS011;67271;59.120;37.970;2023-05-10T09:52:52;3.90;;;2.00;;
77866;SDS011;67271;59.120;37.970;2023-05-10T09:58:06;7.30;;;2.25;;
77866;SDS011;67271;59.120;37.970;2023-05-10T10:00:36;5.22;;;2.10;;
77866;SDS011;67271;59.120;37.970;2023-05-10T10:03:03;4.25;;;2.20;;
77866;SDS011;67271;59.120;37.970;2023-05-10T10:05:31;6.07;;;2.65;;
77866;SDS011;67271;59.120;37.970;2023-05-10T10:07:58;5.90;;;2.45;;
77866;SDS011;67271;59.120;37.970;2023-05-10T10:10:26;10.18;;;2.38;;
77866;SDS011;67271;59.120;37.970;2023-05-10T10:12:53;4.43;;;2.00;;
77866;SDS011;67271;59.120;37.970;2023-05-10T10:15:22;3.28;;;2.22;;
77866;SDS011;67271;59.120;37.970;2023-05-10T10:17:50;6.95;;;2.13;;
77866;SDS011;67271;59.120;37.970;2023-05-10T10:20:17;6.80;;;2.50;;
77866;SDS011;67271;59.120;37.970;2023-05-10T10:22:44;4.15;;;2.13;;
77866;SDS011;67271;59.120;37.970;2023-05-10T10:25:14;9.70;;;2.83;;
77866;SDS011;67271;59.120;37.970;2023-05-10T10:35:23;5.53;;;2.13;;
77866;SDS011;67271;59.120;37.970;2023-05-10T10:37:50;12.35;;;2.95;;
77866;SDS011;67271;59.120;37.970;2023-05-10T10:40:23;6.10;;;2.95;;
77866;SDS011;67271;59.120;37.970;2023-05-10T10:42:51;12.55;;;2.38;;
77866;SDS011;67271;59.120;37.970;2023-05-10T10:45:18;4.85;;;2.20;;
77866;SDS011;67271;59.120;37.970;2023-05-10T10:47:45;6.10;;;2.40;;
77866;SDS011;67271;59.120;37.970;2023-05-10T10:50:11;6.60;;;2.40;;
77866;SDS011;67271;59.120;37.970;2023-05-10T10:52:42;8.55;;;2.58;;
77866;SDS011;67271;59.120;37.970;2023-05-10T10:55:16;8.43;;;2.75;;
77866;SDS011;67271;59.120;37.970;2023-05-10T10:57:48;6.88;;;3.78;;
77866;SDS011;67271;59.120;37.970;2023-05-10T11:02:52;6.18;;;2.40;;
77866;SDS011;67271;59.120;37.970;2023-05-10T11:13:17;5.85;;;1.98;;
77866;SDS011;67271;59.120;37.970;2023-05-10T11:19:04;3.83;;;1.80;;
77866;SDS011;67271;59.120;37.970;2023-05-10T11:21:44;5.53;;;2.50;;
77866;SDS011;67271;59.120;37.970;2023-05-10T11:24:13;7.13;;;2.63;;
77866;SDS011;67271;59.120;37.970;2023-05-10T11:26:52;6.05;;;2.78;;
77866;SDS011;67271;59.120;37.970;2023-05-10T11:29:18;3.38;;;2.30;;
77866;SDS011;67271;59.120;37.970;2023-05-10T11:31:47;2.95;;;1.88;;
77866;SDS011;67271;59.120;37.970;2023-05-10T11:34:29;6.82;;;2.42;;
77866;SDS011;67271;59.120;37.970;2023-05-10T11:36:59;8.90;;;2.17;;
77866;SDS011;67271;59.120;37.970;2023-05-10T11:39:25;2.40;;;1.85;;
77866;SDS011;67271;59.120;37.970;2023-05-10T11:41:56;3.75;;;2.20;;
77866;SDS011;67271;59.120;37.970;2023-05-10T11:44:22;3.88;;;2.17;;
77866;SDS011;67271;59.120;37.970;2023-05-10T11:46:49;4.50;;;2.20;;
77866;SDS011;67271;59.120;37.970;2023-05-10T11:49:15;4.40;;;2.50;;
77866;SDS011;67271;59.120;37.970;2023-05-10T11:51:40;7.00;;;2.60;;
77866;SDS011;67271;59.120;37.970;2023-05-10T11:54:11;8.18;;;2.50;;
77866;SDS011;67271;59.120;37.970;2023-05-10T11:56:37;9.88;;;2.45;;
77866;SDS011;67271;59.120;37.970;2023-05-10T11:59:04;5.68;;;3.05;;
77866;SDS011;67271;59.120;37.970;2023-05-10T12:01:31;5.05;;;2.60;;
77866;SDS011;67271;59.120;37.970;2023-05-10T12:03:57;10.68;;;2.63;;
77866;SDS011;67271;59.120;37.970;2023-05-10T12:06:29;8.20;;;3.00;;
77866;SDS011;67271;59.120;37.970;2023-05-10T12:09:05;5.57;;;1.88;;
77866;SDS011;67271;59.120;37.970;2023-05-10T12:11:35;6.05;;;2.22;;
77866;SDS011;67271;59.120;37.970;2023-05-10T12:14:04;8.10;;;2.83;;
77866;SDS011;67271;59.120;37.970;2023-05-10T12:16:30;3.75;;;2.25;;
77866;SDS011;67271;59.120;37.970;2023-05-10T12:18:56;9.05;;;2.65;;
77866;SDS011;67271;59.120;37.970;2023-05-10T12:21:24;5.10;;;2.35;;
77866;SDS011;67271;59.120;37.970;2023-05-10T12:23:51;5.45;;;2.10;;
77866;SDS011;67271;59.120;37.970;2023-05-10T12:26:21;8.23;;;2.67;;
77866;SDS011;67271;59.120;37.970;2023-05-10T12:28:48;5.50;;;2.42;;
77866;SDS011;67271;59.120;37.970;2023-05-10T12:31:14;5.65;;;2.38;;
77866;SDS011;67271;59.120;37.970;2023-05-10T12:33:41;5.70;;;2.25;;
77866;SDS011;67271;59.120;37.970;2023-05-10T12:36:12;5.55;;;2.10;;
77866;SDS011;67271;59.120;37.970;2023-05-10T12:38:43;4.55;;;2.30;;
77866;SDS011;67271;59.120;37.970;2023-05-10T12:41:16;3.90;;;2.22;;
77866;SDS011;67271;59.120;37.970;2023-05-10T12:43:43;5.55;;;2.17;;
77866;SDS011;67271;59.120;37.970;2023-05-10T12:46:13;4.70;;;2.45;;
77866;SDS011;67271;59.120;37.970;2023-05-10T12:48:40;7.70;;;2.47;;
77866;SDS011;67271;59.120;37.970;2023-05-10T12:51:07;7.40;;;3.05;;
77866;SDS011;67271;59.120;37.970;2023-05-10T12:53:42;4.85;;;2.50;;
77866;SDS011;67271;59.120;37.970;2023-05-10T12:56:10;7.75;;;2.75;;
77866;SDS011;67271;59.120;37.970;2023-05-10T12:58:36;8.20;;;2.55;;
77866;SDS011;67271;59.120;37.970;2023-05-10T13:01:04;3.75;;;2.53;;
77866;SDS011;67271;59.120;37.970;2023-05-10T13:03:33;6.22;;;2.33;;
77866;SDS011;67271;59.120;37.970;2023-05-10T13:05:59;7.90;;;2.58;;
77866;SDS011;67271;59.120;37.970;2023-05-10T13:08:28;6.65;;;2.33;;
77866;SDS011;67271;59.120;37.970;2023-05-10T13:10:58;10.90;;;1.92;;
77866;SDS011;67271;59.120;37.970;2023-05-10T13:13:28;3.70;;;2.22;;
77866;SDS011;67271;59.120;37.970;2023-05-10T13:15:54;6.20;;;2.10;;
77866;SDS011;67271;59.120;37.970;2023-05-10T13:18:19;3.55;;;2.25;;
77866;SDS011;67271;59.120;37.970;2023-05-10T13:20:45;7.28;;;2.80;;
77866;SDS011;67271;59.120;37.970;2023-05-10T13:23:11;5.97;;;2.97;;
77866;SDS011;67271;59.120;37.970;2023-05-10T13:25:37;5.05;;;2.20;;
77866;SDS011;67271;59.120;37.970;2023-05-10T13:28:03;7.65;;;2.38;;
77866;SDS011;67271;59.120;37.970;2023-05-10T13:30:29;9.52;;;3.45;;
77866;SDS011;67271;59.120;37.970;2023-05-10T13:32:55;3.53;;;2.55;;
77866;SDS011;67271;59.120;37.970;2023-05-10T13:35:20;4.97;;;2.40;;
77866;SDS011;67271;59.120;37.970;2023-05-10T13:37:46;4.28;;;2.38;;
77866;SDS011;67271;59.120;37.970;2023-05-10T13:40:12;7.00;;;2.75;;
77866;SDS011;67271;59.120;37.970;2023-05-10T13:42:40;6.32;;;2.20;;
77866;SDS011;67271;59.120;37.970;2023-05-10T13:45:06;5.18;;;2.90;;
77866;SDS011;67271;59.120;37.970;2023-05-10T13:47:32;7.95;;;2.40;;
77866;SDS011;67271;59.120;37.970;2023-05-10T13:49:58;6.38;;;2.42;;
77866;SDS011;67271;59.120;37.970;2023-05-10T13:52:24;3.72;;;2.35;;
77866;SDS011;67271;59.120;37.970;2023-05-10T13:54:50;4.55;;;2.63;;
77866;SDS011;67271;59.120;37.970;2023-05-10T13:57:20;5.63;;;2.53;;
77866;SDS011;67271;59.120;37.970;2023-05-10T13:59:46;11.18;;;2.25;;
77866;SDS011;67271;59.120;37.970;2023-05-10T14:02:12;7.53;;;2.80;;
77866;SDS011;67271;59.120;37.970;2023-05-10T14:04:38;6.60;;;2.40;;
77866;SDS011;67271;59.120;37.970;2023-05-10T14:07:04;5.28;;;2.55;;
77866;SDS011;67271;59.120;37.970;2023-05-10T14:09:30;5.25;;;2.53;;
77866;SDS011;67271;59.120;37.970;2023-05-10T14:11:56;4.10;;;2.45;;
77866;SDS011;67271;59.120;37.970;2023-05-10T14:14:22;7.15;;;2.42;;
77866;SDS011;67271;59.120;37.970;2023-05-10T14:16:48;7.95;;;2.47;;
77866;SDS011;67271;59.120;37.970;2023-05-10T14:19:14;6.30;;;2.65;;
77866;SDS011;67271;59.120;37.970;2023-05-10T14:21:40;3.58;;;2.40;;
77866;SDS011;67271;59.120;37.970;2023-05-10T14:24:06;4.32;;;2.20;;
77866;SDS011;67271;59.120;37.970;2023-05-10T14:26:32;6.68;;;2.45;;
77866;SDS011;67271;59.120;37.970;2023-05-10T14:28:59;6.72;;;2.50;;
77866;SDS011;67271;59.120;37.970;2023-05-10T14:31:25;5.15;;;2.88;;
77866;SDS011;67271;59.120;37.970;2023-05-10T14:33:51;8.88;;;2.83;;
77866;SDS011;67271;59.120;37.970;2023-05-10T14:36:17;5.60;;;2.55;;
77866;SDS011;67271;59.120;37.970;2023-05-10T14:38:43;5.43;;;2.15;;
77866;SDS011;67271;59.120;37.970;2023-05-10T14:41:09;7.68;;;2.40;;
77866;SDS011;67271;59.120;37.970;2023-05-10T14:43:39;3.40;;;2.60;;
77866;SDS011;67271;59.120;37.970;2023-05-10T14:46:05;5.40;;;2.95;;
77866;SDS011;67271;59.120;37.970;2023-05-10T14:48:31;9.13;;;2.75;;
77866;SDS011;67271;59.120;37.970;2023-05-10T14:50:57;5.40;;;2.35;;
77866;SDS011;67271;59.120;37.970;2023-05-10T14:53:23;5.32;;;2.03;;
77866;SDS011;67271;59.120;37.970;2023-05-10T14:55:49;8.00;;;2.80;;
77866;SDS011;67271;59.120;37.970;2023-05-10T14:58:15;7.75;;;2.20;;
77866;SDS011;67271;59.120;37.970;2023-05-10T15:00:41;6.22;;;2.60;;
77866;SDS011;67271;59.120;37.970;2023-05-10T15:03:07;4.40;;;2.15;;
77866;SDS011;67271;59.120;37.970;2023-05-10T15:05:33;17.80;;;2.72;;
77866;SDS011;67271;59.120;37.970;2023-05-10T15:07:59;5.95;;;2.65;;
77866;SDS011;67271;59.120;37.970;2023-05-10T15:10:25;10.65;;;3.00;;
77866;SDS011;67271;59.120;37.970;2023-05-10T15:12:51;5.53;;;2.28;;
77866;SDS011;67271;59.120;37.970;2023-05-10T15:15:17;7.85;;;3.13;;
77866;SDS011;67271;59.120;37.970;2023-05-10T15:17:42;5.28;;;2.30;;
77866;SDS011;67271;59.120;37.970;2023-05-10T15:20:08;4.13;;;2.50;;
77866;SDS011;67271;59.120;37.970;2023-05-10T15:22:34;6.28;;;2.60;;
77866;SDS011;67271;59.120;37.970;2023-05-10T15:25:00;12.50;;;2.60;;
77866;SDS011;67271;59.120;37.970;2023-05-10T15:27:27;6.35;;;2.47;;